Time;durP1;ratioP1;P1;durP2;ratioP2;P2;SDS_P1;SDS_P2;PMS_P1;PMS_P2;Temp;Humidity;BMP_temperature;BMP_pressure;BME280_temperature;BME280_humidity;BME280_pressure;Samples;Min_cycle;Max_cycle;Signal;HPM_P1;HPM_P2
2023/05/21 00:01:38;;;;;;;5.53;2.60;;;15.50;91.40;;;;;;5077015;28;20036;-72
2023/05/21 00:04:06;;;;;;;3.95;2.60;;;15.50;91.40;;;;;;5077068;28;20118;-72
2023/05/21 00:06:34;;;;;;;3.83;2.47;;;15.50;91.70;;;;;;5077000;28;20050;-72
2023/05/21 00:09:04;;;;;;;5.07;2.60;;;15.50;91.70;;;;;;5077270;28;20036;-72
2023/05/21 00:11:31;;;;;;;8.35;2.95;;;15.50;91.70;;;;;;5076731;28;20039;-72
2023/05/21 00:13:57;;;;;;;5.75;2.45;;;15.50;91.80;;;;;;5076666;28;20040;-72
2023/05/21 00:16:23;;;;;;;6.93;2.42;;;15.50;92.00;;;;;;5076921;28;20056;-72
2023/05/21 00:18:49;;;;;;;6.43;2.88;;;15.50;92.10;;;;;;5076302;28;20071;-72
2023/05/21 00:21:21;;;;;;;4.45;2.80;;;15.40;92.20;;;;;;5076732;28;20083;-72
2023/05/21 00:23:50;;;;;;;6.93;2.90;;;15.50;92.40;;;;;;5059895;28;20043;-72
2023/05/21 00:26:15;;;;;;;4.07;2.38;;;15.40;92.40;;;;;;5076723;28;20036;-72
2023/05/21 00:28:41;;;;;;;7.13;3.03;;;15.40;92.60;;;;;;5076487;28;20117;-72
2023/05/21 00:31:06;;;;;;;5.50;3.10;;;15.40;92.70;;;;;;5076313;28;20043;-72
2023/05/21 00:33:32;;;;;;;4.95;2.92;;;15.40;92.80;;;;;;5076413;28;20117;-72
2023/05/21 00:35:58;;;;;;;5.95;3.13;;;15.40;93.10;;;;;;5076338;28;20497;-72
2023/05/21 00:38:26;;;;;;;6.22;2.63;;;15.40;92.90;;;;;;5076346;28;20032;-72
2023/05/21 00:40:52;;;;;;;4.18;3.10;;;15.40;93.10;;;;;;5059797;28;20043;-72
2023/05/21 00:43:18;;;;;;;5.78;2.78;;;15.40;93.20;;;;;;5076276;28;20047;-72
2023/05/21 00:45:45;;;;;;;7.15;3.10;;;15.40;93.30;;;;;;5076228;28;20123;-72
2023/05/21 00:48:12;;;;;;;6.20;3.13;;;15.40;93.40;;;;;;5076262;28;20042;-72
2023/05/21 00:50:41;;;;;;;6.50;2.45;;;15.40;93.40;;;;;;5075918;28;20124;-72
2023/05/21 00:53:10;;;;;;;7.00;3.38;;;15.30;93.50;;;;;;5076081;28;20127;-72
2023/05/21 00:55:39;;;;;;;5.60;2.90;;;15.30;93.70;;;;;;5076204;28;20519;-72
2023/05/21 00:58:06;;;;;;;5.30;2.95;;;15.30;93.80;;;;;;5076013;28;20040;-72
2023/05/21 01:00:33;;;;;;;4.47;2.92;;;15.30;94.30;;;;;;5038682;28;1065093;-72
2023/05/21 01:03:00;;;;;;;5.97;2.55;;;15.30;94.40;;;;;;5076934;28;20048;-72
2023/05/21 01:05:27;;;;;;;5.60;2.90;;;15.30;94.30;;;;;;5076842;28;20040;-72
2023/05/21 01:07:54;;;;;;;8.88;3.10;;;15.30;94.40;;;;;;5077077;28;20052;-72
2023/05/21 01:10:20;;;;;;;4.88;2.55;;;15.30;94.50;;;;;;5060159;28;20138;-72
2023/05/21 01:12:46;;;;;;;4.85;2.60;;;15.30;94.70;;;;;;5077032;28;20466;-72
2023/05/21 01:15:13;;;;;;;8.77;3.25;;;15.30;94.80;;;;;;5060082;28;20066;-72
2023/05/21 01:17:40;;;;;;;8.70;3.35;;;15.20;95.00;;;;;;5076594;28;20040;-71
2023/05/21 01:20:09;;;;;;;5.68;2.72;;;15.20;95.10;;;;;;5076544;28;20047;-71
2023/05/21 01:22:38;;;;;;;5.57;3.05;;;15.20;95.20;;;;;;5076531;28;20036;-72
2023/05/21 01:25:04;;;;;;;5.53;3.38;;;15.30;95.40;;;;;;5076466;28;20046;-72
2023/05/21 01:27:30;;;;;;;5.38;3.30;;;15.20;95.40;;;;;;5076453;28;20032;-72
2023/05/21 01:29:55;;;;;;;5.70;3.28;;;15.20;95.60;;;;;;5075712;28;20048;-72
2023/05/21 01:32:40;;;;;;;7.22;3.47;;;15.20;95.70;;;;;;5076368;28;20044;-72
2023/05/21 01:35:12;;;;;;;6.35;3.10;;;15.10;95.90;;;;;;5076356;28;20040;-72
2023/05/21 01:37:46;;;;;;;8.30;3.33;;;15.10;96.10;;;;;;5076235;28;20119;-72
2023/05/21 01:40:28;;;;;;;8.30;3.40;;;15.10;96.30;;;;;;5076396;28;20052;-72
2023/05/21 01:42:54;;;;;;;6.93;3.70;;;15.10;96.60;;;;;;5076443;28;20040;-71
2023/05/21 01:45:22;;;;;;;6.75;3.38;;;15.00;96.70;;;;;;5076294;28;20412;-71
2023/05/21 01:47:50;;;;;;;4.45;2.88;;;15.00;97.00;;;;;;5076089;28;20044;-71
2023/05/21 01:50:17;;;;;;;5.80;3.38;;;15.00;97.10;;;;;;5075902;28;20040;-71
2023/05/21 01:52:55;;;;;;;8.07;3.80;;;15.00;97.30;;;;;;5076007;28;20031;-71
2023/05/21 01:55:24;;;;;;;6.43;3.42;;;15.00;97.20;;;;;;5076206;28;20040;-72
2023/05/21 01:57:54;;;;;;;4.25;3.10;;;15.00;97.40;;;;;;5059407;28;20602;-72
2023/05/21 02:00:21;;;;;;;6.68;3.50;;;15.00;97.60;;;;;;5075829;28;20047;-72
2023/05/21 02:02:47;;;;;;;7.15;3.58;;;15.00;97.70;;;;;;5075785;28;20040;-72
2023/05/21 02:05:13;;;;;;;8.02;3.70;;;14.90;97.70;;;;;;5075625;28;20073;-72
2023/05/21 02:07:39;;;;;;;6.43;3.38;;;15.00;97.90;;;;;;5075609;28;20040;-71
2023/05/21 02:10:06;;;;;;;7.18;3.83;;;14.90;97.90;;;;;;5075486;28;20073;-71
2023/05/21 02:12:32;;;;;;;5.57;3.30;;;14.90;98.00;;;;;;5075618;28;20039;-71
2023/05/21 02:14:58;;;;;;;5.85;3.55;;;14.90;98.30;;;;;;5075852;28;20066;-71
2023/05/21 02:17:25;;;;;;;6.15;3.38;;;14.90;98.50;;;;;;5058867;28;20493;-71
2023/05/21 02:19:50;;;;;;;5.15;3.45;;;14.90;98.30;;;;;;5075402;28;20044;-71
2023/05/21 02:22:16;;;;;;;6.78;3.80;;;14.90;98.40;;;;;;5075688;28;20044;-71
2023/05/21 02:24:42;;;;;;;7.35;3.80;;;14.90;98.50;;;;;;5075416;28;20090;-71
2023/05/21 02:27:09;;;;;;;7.68;3.90;;;14.90;98.60;;;;;;5075405;28;20090;-71
2023/05/21 02:29:35;;;;;;;8.75;3.72;;;14.90;98.60;;;;;;5075684;28;20044;-71
2023/05/21 02:32:01;;;;;;;8.20;4.30;;;14.80;98.60;;;;;;5075551;28;20048;-72
2023/05/21 02:34:29;;;;;;;9.60;4.20;;;14.80;98.80;;;;;;5075550;28;20040;-72
2023/05/21 02:36:55;;;;;;;7.88;3.90;;;14.80;98.90;;;;;;5075255;28;20499;-72
2023/05/21 02:39:21;;;;;;;7.63;4.50;;;14.70;99.00;;;;;;5075405;28;20040;-72
2023/05/21 02:41:47;;;;;;;7.60;4.15;;;14.80;99.10;;;;;;5075401;28;20454;-72
2023/05/21 02:44:13;;;;;;;7.97;3.97;;;14.70;99.40;;;;;;5075204;28;20047;-72
2023/05/21 02:46:38;;;;;;;9.82;4.22;;;14.80;99.20;;;;;;5075174;28;20036;-72
2023/05/21 02:49:04;;;;;;;8.45;3.92;;;14.80;99.30;;;;;;5075388;28;20047;-72
2023/05/21 02:51:30;;;;;;;7.03;3.92;;;14.70;99.40;;;;;;5093205;28;20424;-72
2023/05/21 02:53:56;;;;;;;9.73;4.53;;;14.70;99.30;;;;;;5075087;28;20032;-72
2023/05/21 02:56:22;;;;;;;6.95;4.22;;;14.70;99.50;;;;;;5075051;28;20112;-72
2023/05/21 02:58:47;;;;;;;9.18;4.10;;;14.70;99.50;;;;;;5075046;28;20063;-72
2023/05/21 03:01:13;;;;;;;9.02;4.40;;;14.60;99.70;;;;;;5075118;28;20050;-72
2023/05/21 03:03:39;;;;;;;7.43;4.60;;;14.60;99.70;;;;;;5074989;28;20489;-72
2023/05/21 03:06:05;;;;;;;6.88;4.75;;;14.60;99.90;;;;;;5075011;28;20032;-72
2023/05/21 03:08:31;;;;;;;10.07;4.97;;;14.60;99.90;;;;;;5074951;28;20097;-72
2023/05/21 03:10:56;;;;;;;7.85;4.50;;;14.60;99.90;;;;;;5074834;28;20040;-72
2023/05/21 03:13:22;;;;;;;10.00;4.57;;;14.60;99.90;;;;;;5058283;28;20040;-72
2023/05/21 03:15:47;;;;;;;9.63;4.95;;;14.60;99.90;;;;;;5075021;28;20032;-72
2023/05/21 03:18:13;;;;;;;6.47;4.68;;;14.60;99.90;;;;;;5074838;28;20039;-72
2023/05/21 03:20:42;;;;;;;6.10;4.30;;;14.60;99.90;;;;;;5075037;28;20036;-72
2023/05/21 03:23:08;;;;;;;8.73;4.70;;;14.60;99.90;;;;;;5075129;28;20187;-72
2023/05/21 03:25:35;;;;;;;8.48;4.68;;;14.70;99.90;;;;;;5074821;28;20518;-72
2023/05/21 03:28:01;;;;;;;8.77;4.65;;;14.60;99.90;;;;;;5074792;28;20044;-71
2023/05/21 03:30:27;;;;;;;6.03;4.20;;;14.60;99.90;;;;;;5074862;28;20063;-71
2023/05/21 03:32:52;;;;;;;7.70;5.25;;;14.60;99.90;;;;;;5075526;28;20461;-72
2023/05/21 03:35:18;;;;;;;6.60;4.50;;;14.60;99.90;;;;;;5075615;28;20028;-72
2023/05/21 03:37:45;;;;;;;8.82;4.90;;;14.60;99.90;;;;;;5074719;28;20438;-72
2023/05/21 03:40:11;;;;;;;8.45;5.03;;;14.60;99.90;;;;;;5074584;28;20094;-72
2023/05/21 03:42:36;;;;;;;7.90;4.88;;;14.60;99.90;;;;;;5074598;28;20044;-72
2023/05/21 03:45:03;;;;;;;9.45;5.28;;;14.60;99.90;;;;;;5074928;28;20032;-72
2023/05/21 03:47:28;;;;;;;8.70;4.95;;;14.60;99.90;;;;;;5074625;28;20097;-72
2023/05/21 03:49:54;;;;;;;6.75;4.80;;;14.60;99.90;;;;;;5074468;28;20040;-72
2023/05/21 03:52:19;;;;;;;9.13;4.50;;;14.60;99.90;;;;;;5074609;28;20036;-72
2023/05/21 03:54:45;;;;;;;9.15;5.38;;;14.60;99.90;;;;;;5076988;28;20032;-72
2023/05/21 03:57:11;;;;;;;7.70;4.70;;;14.60;99.90;;;;;;5078500;28;20040;-72
2023/05/21 03:59:36;;;;;;;13.57;5.70;;;14.60;99.90;;;;;;5078118;28;20412;-72
2023/05/21 04:02:02;;;;;;;11.20;4.88;;;14.60;99.90;;;;;;5078000;28;20075;-72
2023/05/21 04:04:28;;;;;;;7.10;4.82;;;14.60;99.90;;;;;;5078099;28;20077;-72
2023/05/21 04:06:54;;;;;;;8.63;4.70;;;14.60;99.90;;;;;;5078027;28;20031;-72
2023/05/21 04:09:20;;;;;;;9.55;4.38;;;14.60;99.90;;;;;;5077849;28;20086;-72
2023/05/21 04:11:46;;;;;;;11.23;4.70;;;14.50;99.90;;;;;;5077725;28;20409;-72
2023/05/21 04:14:12;;;;;;;8.65;4.90;;;14.60;99.90;;;;;;5078144;28;20036;-72
2023/05/21 04:16:38;;;;;;;9.45;4.63;;;14.50;99.90;;;;;;5078116;28;20484;-72
2023/05/21 04:19:05;;;;;;;7.18;4.30;;;14.50;99.90;;;;;;5077738;28;20038;-72
2023/05/21 04:21:31;;;;;;;8.68;4.82;;;14.60;99.90;;;;;;5077716;28;20119;-72
2023/05/21 04:23:57;;;;;;;9.15;4.65;;;14.60;99.90;;;;;;5077973;28;20123;-72
2023/05/21 04:26:24;;;;;;;7.75;4.18;;;14.50;99.90;;;;;;5077556;28;20397;-72
2023/05/21 04:28:49;;;;;;;11.23;4.57;;;14.60;99.90;;;;;;5077592;28;20050;-72
2023/05/21 04:31:15;;;;;;;10.73;4.85;;;14.60;99.90;;;;;;5077492;28;20119;-72
2023/05/21 04:33:44;;;;;;;8.15;4.60;;;14.50;99.90;;;;;;5077501;28;20512;-72
2023/05/21 04:36:10;;;;;;;7.30;4.65;;;14.50;99.90;;;;;;5077735;28;20036;-71
2023/05/21 04:38:37;;;;;;;8.13;5.60;;;14.60;99.90;;;;;;5060787;28;20040;-71
2023/05/21 04:41:03;;;;;;;8.30;4.72;;;14.60;99.90;;;;;;5077386;28;20078;-71
2023/05/21 04:43:29;;;;;;;8.70;4.82;;;14.60;99.90;;;;;;5077555;28;20140;-72
2023/05/21 04:45:55;;;;;;;8.80;4.80;;;14.60;99.90;;;;;;5077298;28;20047;-72
2023/05/21 04:48:25;;;;;;;9.18;4.80;;;14.60;99.90;;;;;;5077508;28;20040;-72
2023/05/21 04:50:52;;;;;;;7.38;4.70;;;14.70;99.90;;;;;;5076972;28;20044;-72
2023/05/21 04:53:18;;;;;;;11.13;4.75;;;14.70;99.90;;;;;;5077122;28;20047;-72
2023/05/21 04:55:43;;;;;;;9.23;4.75;;;14.70;99.90;;;;;;5077279;28;20044;-72
2023/05/21 04:58:12;;;;;;;9.05;4.47;;;14.70;99.90;;;;;;5077023;28;20036;-72
2023/05/21 05:00:39;;;;;;;9.05;4.50;;;14.70;99.90;;;;;;5076845;28;20075;-72
2023/05/21 05:03:04;;;;;;;6.93;4.70;;;14.70;99.90;;;;;;5077177;28;20040;-72
2023/05/21 05:05:30;;;;;;;9.95;4.63;;;14.80;99.90;;;;;;5075754;28;20048;-72
2023/05/21 05:07:57;;;;;;;12.02;4.85;;;14.80;99.90;;;;;;5076927;28;20079;-72
2023/05/21 05:10:22;;;;;;;7.13;4.25;;;14.80;99.90;;;;;;5076682;28;20076;-72
2023/05/21 05:12:48;;;;;;;9.27;4.30;;;14.80;99.90;;;;;;5076802;28;20071;-72
2023/05/21 05:15:14;;;;;;;6.80;4.05;;;14.80;99.90;;;;;;5076902;28;20072;-72
2023/05/21 05:17:39;;;;;;;11.73;4.65;;;14.80;99.90;;;;;;5076655;28;20559;-72
2023/05/21 05:20:09;;;;;;;9.23;4.45;;;14.80;99.90;;;;;;5076601;28;20078;-72
2023/05/21 05:22:34;;;;;;;10.68;4.60;;;14.80;99.90;;;;;;5076433;28;20036;-72
2023/05/21 05:25:00;;;;;;;8.55;4.10;;;14.80;99.90;;;;;;5076562;28;20036;-74
2023/05/21 05:27:26;;;;;;;7.95;4.18;;;14.80;99.90;;;;;;5076522;28;20040;-72
2023/05/21 05:29:51;;;;;;;8.70;4.05;;;14.80;99.90;;;;;;5094396;28;20048;-72
2023/05/21 05:32:17;;;;;;;9.52;4.55;;;14.90;99.90;;;;;;5076643;28;20036;-72
2023/05/21 05:34:44;;;;;;;9.05;4.15;;;14.90;99.90;;;;;;5076325;28;20044;-71
2023/05/21 05:37:10;;;;;;;9.23;4.45;;;14.90;99.90;;;;;;5076251;28;20040;-71
2023/05/21 05:39:35;;;;;;;8.48;4.15;;;14.90;99.90;;;;;;5076447;28;20054;-71
2023/05/21 05:42:02;;;;;;;7.53;4.32;;;14.90;99.90;;;;;;5076530;28;20035;-71
2023/05/21 05:44:27;;;;;;;8.73;4.50;;;15.00;99.90;;;;;;5076300;28;20472;-72
2023/05/21 05:46:55;;;;;;;6.90;4.00;;;15.00;99.90;;;;;;5059597;28;20617;-72
2023/05/21 05:49:21;;;;;;;11.88;4.60;;;15.00;99.90;;;;;;5076435;28;20044;-72
2023/05/21 05:51:46;;;;;;;10.23;4.40;;;15.10;99.90;;;;;;5076021;28;20054;-71
2023/05/21 05:54:12;;;;;;;8.75;4.07;;;15.20;99.90;;;;;;5075961;28;20040;-71
2023/05/21 05:56:38;;;;;;;7.47;4.32;;;15.20;99.90;;;;;;5076091;28;20042;-71
2023/05/21 05:59:03;;;;;;;9.32;4.47;;;15.20;99.90;;;;;;5075797;28;20036;-71
2023/05/21 06:01:30;;;;;;;7.22;3.88;;;15.20;99.90;;;;;;5075918;28;20048;-71
2023/05/21 06:03:56;;;;;;;10.93;4.65;;;15.20;99.90;;;;;;5075759;28;20044;-71
2023/05/21 06:06:22;;;;;;;11.55;4.65;;;15.20;99.90;;;;;;5075717;28;20093;-71
2023/05/21 06:08:47;;;;;;;7.25;4.20;;;15.30;99.90;;;;;;5075984;28;20089;-71
2023/05/21 06:11:15;;;;;;;8.75;4.47;;;15.30;99.90;;;;;;5075492;28;20547;-72
2023/05/21 06:13:41;;;;;;;6.47;4.18;;;15.30;99.90;;;;;;5075862;28;20508;-71
2023/05/21 06:16:08;;;;;;;8.80;3.92;;;15.30;99.90;;;;;;5075232;28;20032;-71
2023/05/21 06:18:34;;;;;;;12.23;4.82;;;15.30;99.90;;;;;;5075536;28;20068;-71
2023/05/21 06:21:00;;;;;;;7.85;3.90;;;15.40;99.80;;;;;;5075663;28;20044;-71
2023/05/21 06:23:26;;;;;;;10.82;3.90;;;15.40;99.70;;;;;;5059351;28;20169;-71
2023/05/21 06:25:51;;;;;;;10.68;4.00;;;15.40;99.70;;;;;;5075556;28;20051;-71
2023/05/21 06:28:17;;;;;;;7.57;4.25;;;15.40;99.70;;;;;;5075535;28;20040;-71
2023/05/21 06:30:43;;;;;;;6.40;3.80;;;15.40;99.80;;;;;;5075348;28;20120;-71
2023/05/21 06:33:08;;;;;;;7.13;3.55;;;15.40;99.60;;;;;;5075538;28;20036;-72
2023/05/21 06:35:35;;;;;;;8.40;3.50;;;15.50;99.50;;;;;;5058866;28;20050;-71
2023/05/21 06:38:01;;;;;;;7.45;4.13;;;15.50;99.50;;;;;;5075219;28;20044;-71
2023/05/21 06:40:27;;;;;;;7.63;3.80;;;15.50;99.30;;;;;;5075494;28;20050;-71
2023/05/21 06:42:54;;;;;;;9.00;3.88;;;15.50;99.10;;;;;;5075267;28;20489;-71
2023/05/21 06:45:20;;;;;;;6.72;3.67;;;15.60;99.00;;;;;;5075754;28;20044;-71
2023/05/21 06:47:46;;;;;;;8.65;4.13;;;15.60;98.90;;;;;;5075166;28;20459;-71
2023/05/21 06:50:11;;;;;;;7.07;3.70;;;15.60;98.90;;;;;;5075277;28;20040;-71
2023/05/21 06:52:37;;;;;;;8.32;3.85;;;15.70;98.90;;;;;;5058467;28;20480;-71
2023/05/21 06:55:03;;;;;;;8.70;3.70;;;15.70;98.70;;;;;;5075177;28;20093;-71
2023/05/21 06:57:28;;;;;;;6.65;3.72;;;15.80;98.60;;;;;;5075115;28;20076;-72
2023/05/21 06:59:54;;;;;;;7.43;3.72;;;15.80;98.50;;;;;;5074888;28;20053;-72
2023/05/21 07:02:20;;;;;;;6.93;3.83;;;15.90;98.40;;;;;;5075136;28;20052;-71
2023/05/21 07:04:45;;;;;;;8.30;3.58;;;15.90;98.20;;;;;;5075283;28;20047;-71
2023/05/21 07:07:11;;;;;;;10.90;3.95;;;15.90;98.10;;;;;;5058555;28;20446;-71
2023/05/21 07:09:37;;;;;;;8.60;3.72;;;16.00;98.00;;;;;;5058193;28;20044;-72
2023/05/21 07:12:02;;;;;;;8.23;4.22;;;16.00;98.00;;;;;;5075027;28;20043;-72
2023/05/21 07:14:28;;;;;;;11.93;3.88;;;16.10;97.90;;;;;;5093320;28;20028;-72
2023/05/21 07:16:53;;;;;;;6.38;3.40;;;16.10;97.70;;;;;;5074919;28;20420;-72
2023/05/21 07:19:19;;;;;;;7.60;3.88;;;16.10;97.60;;;;;;5074877;28;20192;-72
2023/05/21 07:21:45;;;;;;;7.68;4.13;;;16.20;97.60;;;;;;5074852;28;20048;-72
2023/05/21 07:24:11;;;;;;;8.93;4.03;;;16.30;97.40;;;;;;5074847;28;20047;-72
2023/05/21 07:26:37;;;;;;;6.30;3.65;;;16.30;97.10;;;;;;5074783;28;20035;-72
2023/05/21 07:29:02;;;;;;;8.30;4.20;;;16.30;96.90;;;;;;5076535;28;20113;-71
2023/05/21 07:31:28;;;;;;;5.75;3.58;;;16.40;96.70;;;;;;5078629;28;20493;-72
2023/05/21 07:33:53;;;;;;;9.82;4.07;;;16.40;96.60;;;;;;5078709;28;20485;-72
2023/05/21 07:36:19;;;;;;;6.93;3.78;;;16.40;96.50;;;;;;5078894;28;20119;-71
2023/05/21 07:38:44;;;;;;;8.63;3.92;;;16.50;96.40;;;;;;5078546;28;20504;-71
2023/05/21 07:41:10;;;;;;;7.03;3.95;;;16.50;96.50;;;;;;5078457;28;20044;-71
2023/05/21 07:43:37;;;;;;;8.43;4.18;;;16.60;96.50;;;;;;5078491;28;20036;-71
2023/05/21 07:46:03;;;;;;;9.48;4.10;;;16.70;96.70;;;;;;5078423;28;20036;-72
2023/05/21 07:48:28;;;;;;;6.85;4.00;;;16.80;96.40;;;;;;5078404;28;20100;-71
2023/05/21 07:50:55;;;;;;;7.75;3.85;;;16.80;96.10;;;;;;5078167;28;20077;-71
2023/05/21 07:53:21;;;;;;;8.50;4.15;;;16.90;96.30;;;;;;5078507;28;20040;-71
2023/05/21 07:55:46;;;;;;;7.63;4.32;;;17.00;96.30;;;;;;5078533;28;20507;-71
2023/05/21 07:58:22;;;;;;;8.05;4.20;;;17.10;96.30;;;;;;5078173;28;20534;-71
2023/05/21 08:00:47;;;;;;;10.65;4.70;;;17.20;96.20;;;;;;5077973;28;20052;-71
2023/05/21 08:03:17;;;;;;;9.13;4.57;;;17.20;95.70;;;;;;5078335;28;20036;-71
2023/05/21 08:05:49;;;;;;;8.65;4.80;;;17.30;95.50;;;;;;5078072;28;20039;-72
2023/05/21 08:08:20;;;;;;;9.38;4.72;;;17.30;95.20;;;;;;5078050;28;20047;-72
2023/05/21 08:10:46;;;;;;;7.28;4.13;;;17.40;95.00;;;;;;5077979;28;20098;-72
2023/05/21 08:13:12;;;;;;;8.88;4.15;;;17.50;95.10;;;;;;5077914;28;20505;-72
2023/05/21 08:15:38;;;;;;;7.93;4.25;;;17.50;95.10;;;;;;5077813;28;20043;-72
2023/05/21 08:18:04;;;;;;;6.38;4.20;;;17.50;94.70;;;;;;5078116;28;20040;-72
2023/05/21 08:20:31;;;;;;;9.68;4.05;;;17.60;94.80;;;;;;5077669;28;20097;-72
2023/05/21 08:22:57;;;;;;;7.15;3.88;;;17.60;94.90;;;;;;5077724;28;20506;-72
2023/05/21 08:25:22;;;;;;;7.10;4.20;;;17.70;95.30;;;;;;5077732;28;20075;-71
2023/05/21 08:27:48;;;;;;;7.20;4.45;;;17.80;95.00;;;;;;5061029;28;20036;-73
2023/05/21 08:30:13;;;;;;;9.52;4.20;;;17.90;95.00;;;;;;5077489;28;20040;-73
2023/05/21 08:32:39;;;;;;;6.68;4.13;;;18.00;94.60;;;;;;5077589;28;20043;-73
2023/05/21 08:35:06;;;;;;;10.02;4.25;;;18.10;94.40;;;;;;5077791;28;20032;-73
2023/05/21 08:37:32;;;;;;;8.05;4.20;;;18.20;94.10;;;;;;5077569;28;20119;-74
2023/05/21 08:39:58;;;;;;;7.25;4.30;;;18.20;93.80;;;;;;5077086;28;20032;-73
2023/05/21 08:42:41;;;;;;;8.20;4.30;;;18.30;93.80;;;;;;5077358;28;20219;-74
2023/05/21 08:45:09;;;;;;;8.90;4.38;;;18.50;93.40;;;;;;5077629;28;20127;-74
2023/05/21 08:47:38;;;;;;;9.48;4.72;;;18.60;93.10;;;;;;5077303;28;20040;-74
2023/05/21 08:50:25;;;;;;;6.90;4.07;;;18.70;92.90;;;;;;5077331;28;20101;-74
2023/05/21 08:52:51;;;;;;;9.43;4.50;;;18.80;93.00;;;;;;5077514;28;20040;-74
2023/05/21 08:55:17;;;;;;;7.32;3.97;;;18.90;92.30;;;;;;5077160;28;20047;-72
2023/05/21 08:57:43;;;;;;;11.73;4.05;;;19.10;92.60;;;;;;5077154;28;20039;-73
2023/05/21 09:00:10;;;;;;;10.07;4.35;;;19.10;91.90;;;;;;5077090;28;20044;-74
2023/05/21 09:02:39;;;;;;;11.05;4.85;;;19.10;91.50;;;;;;5060367;28;20123;-74
2023/05/21 09:05:05;;;;;;;7.20;4.38;;;19.10;91.20;;;;;;5076953;28;20100;-74
2023/05/21 09:07:38;;;;;;;7.47;4.90;;;19.10;91.30;;;;;;5060179;28;20054;-73
2023/05/21 09:10:09;;;;;;;6.97;4.40;;;19.10;90.90;;;;;;5077003;28;20036;-73
2023/05/21 09:12:35;;;;;;;10.02;4.47;;;19.20;91.00;;;;;;5076867;28;20043;-73
2023/05/21 09:15:02;;;;;;;8.77;4.28;;;19.20;90.90;;;;;;5076824;28;20062;-73
2023/05/21 09:17:27;;;;;;;10.45;4.55;;;19.20;90.90;;;;;;5076892;28;20040;-74
2023/05/21 09:20:16;;;;;;;10.90;4.13;;;19.30;91.10;;;;;;5076608;28;20412;-73
2023/05/21 09:22:43;;;;;;;7.40;4.65;;;19.30;91.10;;;;;;5060189;28;20043;-74
2023/05/21 09:25:10;;;;;;;10.18;4.65;;;19.30;90.80;;;;;;5076569;28;20115;-73
2023/05/21 09:27:36;;;;;;;8.40;4.55;;;19.40;91.20;;;;;;5076420;28;20040;-73
2023/05/21 09:30:03;;;;;;;8.98;4.13;;;19.40;90.70;;;;;;5076219;28;20051;-74
2023/05/21 09:32:29;;;;;;;9.32;4.80;;;19.40;90.60;;;;;;5076558;28;20047;-74
2023/05/21 09:34:55;;;;;;;10.70;4.68;;;19.30;90.70;;;;;;5076452;28;20039;-74
2023/05/21 09:37:21;;;;;;;8.95;4.25;;;19.30;90.50;;;;;;5059782;28;20036;-74
2023/05/21 09:39:47;;;;;;;8.32;4.63;;;19.40;90.50;;;;;;5059524;28;20036;-73
2023/05/21 09:42:13;;;;;;;5.53;3.90;;;19.50;90.50;;;;;;5076254;28;20032;-73
2023/05/21 09:44:42;;;;;;;8.80;4.28;;;19.60;90.60;;;;;;5076177;28;20040;-75
2023/05/21 09:47:11;;;;;;;7.07;4.25;;;19.70;90.30;;;;;;5059496;28;20073;-72
2023/05/21 09:49:36;;;;;;;8.93;4.30;;;19.70;90.20;;;;;;5075903;28;20035;-72
2023/05/21 09:52:02;;;;;;;8.60;4.03;;;19.80;89.50;;;;;;5075410;28;20040;-72
2023/05/21 09:54:32;;;;;;;7.05;4.15;;;19.90;89.40;;;;;;5075983;28;20032;-72
2023/05/21 09:57:01;;;;;;;8.65;4.10;;;20.00;89.20;;;;;;5075944;28;20050;-73
2023/05/21 09:59:40;;;;;;;8.02;3.58;;;20.10;88.80;;;;;;5076036;28;20117;-73
2023/05/21 10:02:18;;;;;;;7.13;4.07;;;20.30;88.60;;;;;;5075794;28;20032;-73
2023/05/21 10:04:47;;;;;;;10.85;4.50;;;20.50;88.70;;;;;;5075727;28;20043;-73
2023/05/21 10:07:17;;;;;;;7.20;4.25;;;20.60;87.40;;;;;;5076027;28;20079;-73
2023/05/21 10:09:46;;;;;;;13.35;4.32;;;20.60;86.50;;;;;;5075490;28;20032;-73
2023/05/21 10:12:13;;;;;;;7.13;4.00;;;20.70;86.50;;;;;;5075552;28;20036;-73
2023/05/21 10:14:40;;;;;;;7.18;3.78;;;20.90;86.40;;;;;;5059298;28;20103;-73
2023/05/21 10:17:06;;;;;;;11.27;4.38;;;21.10;87.30;;;;;;5075800;28;20054;-73
2023/05/21 10:19:35;;;;;;;9.82;4.93;;;21.30;85.60;;;;;;5075764;28;20397;-73
2023/05/21 10:22:03;;;;;;;7.85;4.82;;;21.50;84.90;;;;;;5075794;28;20048;-73
2023/05/21 10:24:29;;;;;;;12.90;4.90;;;21.60;83.90;;;;;;5076321;28;20042;-72
2023/05/21 10:26:55;;;;;;;6.65;3.80;;;21.60;83.70;;;;;;5075444;28;20182;-72
2023/05/21 10:29:22;;;;;;;7.70;4.47;;;21.80;83.70;;;;;;5075376;28;20067;-72
2023/05/21 10:31:50;;;;;;;9.07;4.65;;;21.90;82.40;;;;;;5075323;28;20035;-72
2023/05/21 10:34:16;;;;;;;9.35;4.40;;;22.10;81.60;;;;;;5058667;28;20039;-73
2023/05/21 10:36:43;;;;;;;7.78;4.22;;;22.30;82.00;;;;;;5075407;28;20496;-72
2023/05/21 10:39:12;;;;;;;11.30;4.70;;;22.50;80.60;;;;;;5075484;28;20496;-72
2023/05/21 10:42:08;;;;;;;10.57;4.30;;;22.70;80.70;;;;;;5075300;28;20556;-72
2023/05/21 10:44:48;;;;;;;8.27;4.97;;;22.70;79.10;;;;;;5058612;28;20130;-72
2023/05/21 10:47:16;;;;;;;9.15;4.63;;;22.80;79.70;;;;;;5075495;28;20040;-72
2023/05/21 10:49:58;;;;;;;8.40;4.88;;;22.70;78.30;;;;;;5075433;28;20082;-72
2023/05/21 10:52:35;;;;;;;7.80;5.30;;;22.90;77.70;;;;;;5075052;28;20051;-72
2023/05/21 10:55:12;;;;;;;10.43;5.03;;;22.90;77.70;;;;;;5075059;28;20324;-73
2023/05/21 10:58:07;;;;;;;7.88;5.13;;;22.90;77.20;;;;;;5058295;28;20043;-73
2023/05/21 11:00:33;;;;;;;8.55;5.35;;;22.90;77.00;;;;;;5029210;28;20056;-72
2023/05/21 11:03:00;;;;;;;8.15;5.65;;;22.80;77.20;;;;;;5076311;28;20047;-72
2023/05/21 11:05:52;;;;;;;10.13;5.45;;;22.80;77.00;;;;;;5080195;28;20040;-72
2023/05/21 11:08:22;;;;;;;8.45;5.00;;;23.00;77.30;;;;;;5079088;28;20040;-72
2023/05/21 11:10:58;;;;;;;6.88;5.18;;;23.20;76.70;;;;;;5062181;28;20085;-72
2023/05/21 11:13:25;;;;;;;9.63;5.57;;;23.30;75.90;;;;;;5078971;28;20059;-72
2023/05/21 11:15:57;;;;;;;11.30;6.07;;;23.40;75.80;;;;;;5078852;28;20404;-72
2023/05/21 11:18:36;;;;;;;7.93;5.90;;;23.60;75.00;;;;;;5079258;28;20040;-72
2023/05/21 11:21:09;;;;;;;11.77;5.97;;;23.60;74.50;;;;;;5078729;28;20504;-72
2023/05/21 11:23:49;;;;;;;;;;;23.60;75.20;;;;;;5079244;28;20044;-73
2023/05/21 11:26:23;;;;;;;7.55;5.30;;;23.80;75.10;;;;;;5079040;28;19942;-72
2023/05/21 11:29:04;;;;;;;10.55;5.90;;;23.90;74.20;;;;;;5062132;28;20062;-72
2023/05/21 11:31:37;;;;;;;10.07;5.22;;;24.00;73.50;;;;;;5079086;28;20574;-72
2023/05/21 11:34:14;;;;;;;10.68;5.85;;;24.10;74.20;;;;;;5063851;28;20036;-73
2023/05/21 11:36:42;;;;;;;9.77;5.20;;;24.30;73.00;;;;;;5078941;28;20047;-73
2023/05/21 11:39:21;;;;;;;11.45;5.78;;;24.30;72.90;;;;;;5061745;28;20043;-72
2023/05/21 11:42:00;;;;;;;6.95;5.60;;;24.50;72.00;;;;;;5078589;28;20412;-73
2023/05/21 11:44:49;;;;;;;9.65;5.82;;;24.60;71.20;;;;;;5078738;28;20185;-72
2023/05/21 11:47:17;;;;;;;10.95;6.57;;;24.70;71.50;;;;;;5067844;28;20060;-72
2023/05/21 11:49:43;;;;;;;14.18;7.57;;;24.80;71.30;;;;;;5078176;28;20051;-72
2023/05/21 11:52:10;;;;;;;10.63;7.55;;;24.90;71.10;;;;;;5078312;28;20048;-72
2023/05/21 11:54:45;;;;;;;12.73;8.55;;;25.00;70.90;;;;;;5078250;28;20115;-72
2023/05/21 11:57:14;;;;;;;14.35;7.70;;;25.00;70.30;;;;;;5078496;28;20146;-72
2023/05/21 11:59:40;;;;;;;12.75;9.35;;;25.10;70.60;;;;;;5078281;28;20032;-72
2023/05/21 12:02:07;;;;;;;9.45;7.13;;;25.10;70.40;;;;;;5078110;28;20043;-72
2023/05/21 12:04:37;;;;;;;16.08;7.07;;;25.20;70.80;;;;;;5078316;28;20079;-72
2023/05/21 12:07:06;;;;;;;10.43;7.70;;;25.30;70.40;;;;;;5078283;28;20052;-72
2023/05/21 12:09:42;;;;;;;11.98;7.30;;;25.40;70.10;;;;;;5077898;28;20417;-72
2023/05/21 12:12:09;;;;;;;13.25;8.20;;;25.50;70.90;;;;;;5077934;28;20040;-72
2023/05/21 12:14:36;;;;;;;13.27;9.18;;;25.70;70.50;;;;;;5077218;28;20074;-72
2023/05/21 12:17:03;;;;;;;13.60;9.23;;;25.70;70.10;;;;;;5077899;28;20036;-72
2023/05/21 12:19:33;;;;;;;11.25;7.32;;;25.70;69.40;;;;;;5078144;28;20105;-72
2023/05/21 12:22:03;;;;;;;12.68;6.95;;;25.80;70.10;;;;;;5077835;28;20044;-72
2023/05/21 12:24:29;;;;;;;11.88;7.72;;;25.70;69.50;;;;;;5077732;28;20047;-73
2023/05/21 12:27:00;;;;;;;11.32;7.80;;;25.90;69.70;;;;;;5077931;28;20109;-72
2023/05/21 12:29:30;;;;;;;12.07;7.53;;;25.90;69.20;;;;;;5077835;28;20040;-72
2023/05/21 12:32:00;;;;;;;11.20;8.20;;;25.90;68.20;;;;;;5077752;28;20039;-72
2023/05/21 12:34:43;;;;;;;16.30;8.55;;;25.90;69.00;;;;;;5077563;28;20036;-72
2023/05/21 12:37:30;;;;;;;9.38;7.68;;;26.00;69.60;;;;;;5077821;28;20062;-72
2023/05/21 12:40:03;;;;;;;12.38;8.05;;;26.10;68.70;;;;;;5077426;28;20079;-72
2023/05/21 12:42:33;;;;;;;11.05;6.95;;;26.10;68.50;;;;;;5061101;28;20044;-72
2023/05/21 12:45:00;;;;;;;12.63;10.10;;;26.20;68.60;;;;;;5060639;28;20040;-72
2023/05/21 12:47:26;;;;;;;13.10;10.18;;;26.20;67.20;;;;;;5077244;28;20085;-73
2023/05/21 12:50:02;;;;;;;14.48;7.65;;;26.20;68.00;;;;;;5077214;28;20044;-73